Time;durP1;ratioP1;P1;durP2;ratioP2;P2;SDS_P1;SDS_P2;PMS_P1;PMS_P2;Temp;Humidity;BMP_temperature;BMP_pressure;BME280_temperature;BME280_humidity;BME280_pressure;Samples;Min_cycle;Max_cycle;Signal;HPM_P1;HPM_P2
2022/07/26 00:01:58;;;;;;;2.40;1.20;;;20.50;90.00;;;;;;5067943;28;20423;-76
2022/07/26 00:04:24;;;;;;;11.00;1.47;;;20.40;90.00;;;;;;5073123;28;20472;-76
2022/07/26 00:06:50;;;;;;;3.03;1.30;;;20.40;90.00;;;;;;5073884;28;20185;-76
2022/07/26 00:09:16;;;;;;;4.73;1.60;;;20.40;90.20;;;;;;5073213;28;20899;-77
2022/07/26 00:11:41;;;;;;;2.20;1.23;;;20.30;90.10;;;;;;5078615;28;20224;-76
2022/07/26 00:14:08;;;;;;;2.40;1.40;;;20.30;89.90;;;;;;5072684;28;20515;-76
2022/07/26 00:16:34;;;;;;;3.53;1.60;;;20.40;90.40;;;;;;5076678;28;20511;-76
2022/07/26 00:19:00;;;;;;;1.70;0.90;;;20.50;90.20;;;;;;5071560;28;20421;-76
2022/07/26 00:21:26;;;;;;;5.37;1.10;;;20.50;90.20;;;;;;5074889;28;20439;-76
2022/07/26 00:23:52;;;;;;;4.23;1.17;;;20.50;89.80;;;;;;5076501;28;20419;-76
2022/07/26 00:26:17;;;;;;;3.17;1.30;;;20.50;89.80;;;;;;5074316;28;20185;-77
2022/07/26 00:28:43;;;;;;;2.27;1.23;;;20.60;90.20;;;;;;5073127;28;20288;-76
2022/07/26 00:31:10;;;;;;;2.53;1.27;;;20.70;90.10;;;;;;5072558;28;20234;-77
2022/07/26 00:33:36;;;;;;;6.67;1.20;;;20.70;90.00;;;;;;5074597;28;20173;-77
2022/07/26 00:36:02;;;;;;;2.60;1.40;;;20.70;89.70;;;;;;5073191;28;20771;-76
2022/07/26 00:38:28;;;;;;;1.63;0.73;;;20.70;90.30;;;;;;5071659;28;20180;-76
2022/07/26 00:40:54;;;;;;;4.33;1.10;;;20.70;90.50;;;;;;5086902;28;20189;-76
2022/07/26 00:43:19;;;;;;;3.30;1.10;;;20.80;90.50;;;;;;5072830;28;20544;-76
2022/07/26 00:45:45;;;;;;;2.53;1.20;;;20.80;90.60;;;;;;5079655;28;20267;-76
2022/07/26 00:48:10;;;;;;;3.10;1.00;;;20.80;90.20;;;;;;5073570;28;20191;-77
2022/07/26 00:50:36;;;;;;;4.73;1.30;;;20.80;90.10;;;;;;5086330;28;20196;-76
2022/07/26 00:53:02;;;;;;;4.77;1.50;;;20.80;89.60;;;;;;5081242;28;20216;-76
2022/07/26 00:55:28;;;;;;;3.40;1.33;;;20.90;89.20;;;;;;5077301;28;20170;-76
2022/07/26 00:57:54;;;;;;;2.37;1.23;;;20.80;89.50;;;;;;5073339;28;20191;-76
2022/07/26 01:00:22;;;;;;;3.83;1.40;;;20.80;90.10;;;;;;5072039;28;20503;-76
2022/07/26 01:02:48;;;;;;;2.70;1.27;;;20.70;90.40;;;;;;5081254;28;20189;-76
2022/07/26 01:05:15;;;;;;;3.50;1.00;;;20.70;90.40;;;;;;5079959;28;20427;-76
2022/07/26 01:07:41;;;;;;;3.60;1.00;;;20.80;90.50;;;;;;5084713;28;20435;-76
2022/07/26 01:10:11;;;;;;;1.90;0.80;;;20.80;90.60;;;;;;5073958;28;20431;-76
2022/07/26 01:12:40;;;;;;;3.53;0.97;;;20.80;90.40;;;;;;5074233;28;20237;-76
2022/07/26 01:15:08;;;;;;;4.30;1.30;;;20.90;90.30;;;;;;5081482;28;20475;-76
2022/07/26 01:17:34;;;;;;;2.10;1.00;;;20.90;90.50;;;;;;5091485;28;20407;-76
2022/07/26 01:19:59;;;;;;;2.30;0.90;;;21.00;90.20;;;;;;5100313;28;20876;-77
2022/07/26 01:22:25;;;;;;;2.90;1.10;;;21.00;90.70;;;;;;5098195;28;20447;-76
2022/07/26 01:24:51;;;;;;;2.37;1.03;;;21.00;90.30;;;;;;5099516;28;20161;-76
2022/07/26 01:27:16;;;;;;;1.90;1.10;;;21.10;90.30;;;;;;5090242;28;20178;-77
2022/07/26 01:29:43;;;;;;;3.80;0.83;;;21.00;90.30;;;;;;5074663;28;20618;-77
2022/07/26 01:32:09;;;;;;;4.13;1.10;;;21.10;90.30;;;;;;5077262;28;20220;-77
2022/07/26 01:34:34;;;;;;;2.37;1.13;;;21.10;90.50;;;;;;5072776;28;20451;-77
2022/07/26 01:37:01;;;;;;;6.93;1.07;;;21.00;90.60;;;;;;5079138;28;20185;-77
2022/07/26 01:39:26;;;;;;;2.10;0.97;;;21.00;90.60;;;;;;5071784;28;20181;-77
2022/07/26 01:41:53;;;;;;;2.67;0.67;;;21.00;90.50;;;;;;5072284;28;21046;-77
2022/07/26 01:44:18;;;;;;;2.87;1.20;;;21.00;90.50;;;;;;5072284;28;20264;-77
2022/07/26 01:46:44;;;;;;;2.57;0.80;;;21.00;90.70;;;;;;5072216;28;20519;-77
2022/07/26 01:49:09;;;;;;;3.63;0.80;;;20.90;91.00;;;;;;5085913;28;20621;-77
2022/07/26 01:51:35;;;;;;;8.10;1.20;;;20.90;90.90;;;;;;5071881;28;20555;-77
2022/07/26 01:54:01;;;;;;;1.97;1.00;;;20.90;91.00;;;;;;5080441;28;20555;-76
2022/07/26 01:56:27;;;;;;;4.47;1.00;;;20.90;90.90;;;;;;5079323;28;20218;-77
2022/07/26 01:58:53;;;;;;;1.50;0.63;;;20.90;91.10;;;;;;5074659;28;20443;-77
2022/07/26 02:01:19;;;;;;;6.53;1.40;;;20.80;91.00;;;;;;5065818;28;20230;-77
2022/07/26 02:03:44;;;;;;;2.33;0.80;;;20.80;91.40;;;;;;5066546;28;20282;-77
2022/07/26 02:06:10;;;;;;;1.77;0.67;;;20.70;91.30;;;;;;5072301;28;20193;-77
2022/07/26 02:08:35;;;;;;;2.00;0.70;;;20.70;91.30;;;;;;5072009;28;20614;-77
2022/07/26 02:11:02;;;;;;;1.50;0.60;;;20.70;91.40;;;;;;5072655;28;20187;-77
2022/07/26 02:13:29;;;;;;;2.03;1.00;;;20.70;91.40;;;;;;5073515;28;20254;-77
2022/07/26 02:15:57;;;;;;;1.50;0.60;;;20.70;91.40;;;;;;5070967;28;20447;-77
2022/07/26 02:18:25;;;;;;;1.60;0.83;;;20.70;91.50;;;;;;5073688;28;20537;-77
2022/07/26 02:20:50;;;;;;;2.80;0.93;;;20.70;91.40;;;;;;5071095;28;20981;-77
2022/07/26 02:23:16;;;;;;;2.73;0.80;;;20.70;91.70;;;;;;5088564;28;21067;-77
2022/07/26 02:25:42;;;;;;;2.97;0.80;;;20.60;91.70;;;;;;5079827;28;20184;-77
2022/07/26 02:28:08;;;;;;;14.43;0.80;;;20.60;92.00;;;;;;5071729;28;20430;-77
2022/07/26 02:30:33;;;;;;;3.60;1.10;;;20.60;92.10;;;;;;5071894;28;20180;-77
2022/07/26 02:32:59;;;;;;;3.77;0.90;;;20.60;92.00;;;;;;5075937;28;20204;-77
2022/07/26 02:35:24;;;;;;;2.23;0.80;;;20.60;92.10;;;;;;5085068;28;20260;-77
2022/07/26 02:37:50;;;;;;;1.70;0.77;;;20.60;92.30;;;;;;5075318;28;20185;-77
2022/07/26 02:40:16;;;;;;;2.33;0.67;;;20.60;92.40;;;;;;5075361;28;20943;-77
2022/07/26 02:42:41;;;;;;;1.70;0.70;;;20.60;92.40;;;;;;5077735;28;20192;-77
2022/07/26 02:45:08;;;;;;;1.60;0.70;;;20.60;92.30;;;;;;5080612;28;20770;-77
2022/07/26 02:47:33;;;;;;;2.13;1.00;;;20.50;92.40;;;;;;5088552;28;20210;-77
2022/07/26 02:49:59;;;;;;;4.80;0.97;;;20.50;92.60;;;;;;5085881;28;20423;-77
2022/07/26 02:52:24;;;;;;;2.10;0.77;;;20.50;92.80;;;;;;5088894;28;20208;-77
2022/07/26 02:54:50;;;;;;;2.93;1.10;;;20.50;92.80;;;;;;5075561;28;20231;-77
2022/07/26 02:57:16;;;;;;;4.47;0.90;;;20.50;92.70;;;;;;5078998;28;20215;-77
2022/07/26 02:59:41;;;;;;;1.87;0.77;;;20.50;92.80;;;;;;5085226;28;20215;-77
2022/07/26 03:02:07;;;;;;;2.03;0.90;;;20.50;92.90;;;;;;5091973;28;20184;-77
2022/07/26 03:04:32;;;;;;;2.23;1.17;;;20.50;92.90;;;;;;5085640;28;20185;-77
2022/07/26 03:06:58;;;;;;;2.03;0.90;;;20.50;93.20;;;;;;5088770;28;20200;-77
2022/07/26 03:09:24;;;;;;;13.70;1.77;;;20.40;93.20;;;;;;5075291;28;20204;-77
2022/07/26 03:11:49;;;;;;;3.00;0.87;;;20.50;93.20;;;;;;5091927;28;20571;-77
2022/07/26 03:14:15;;;;;;;2.23;0.90;;;20.40;93.40;;;;;;5084652;28;20618;-77
2022/07/26 03:16:41;;;;;;;2.20;0.87;;;20.40;93.40;;;;;;5079058;28;20622;-77
2022/07/26 03:19:06;;;;;;;2.17;0.80;;;20.30;93.30;;;;;;5075340;28;20341;-77
2022/07/26 03:21:32;;;;;;;2.57;1.13;;;20.30;93.60;;;;;;5074446;28;20195;-76
2022/07/26 03:23:58;;;;;;;2.70;1.20;;;20.30;93.80;;;;;;5085532;28;20520;-77
2022/07/26 03:26:23;;;;;;;1.80;0.97;;;20.30;93.90;;;;;;5077792;28;20185;-77
2022/07/26 03:28:49;;;;;;;1.93;0.90;;;20.30;93.60;;;;;;5085237;28;20210;-77
2022/07/26 03:31:14;;;;;;;4.73;1.13;;;20.30;93.60;;;;;;5074452;28;20242;-77
2022/07/26 03:33:40;;;;;;;2.33;1.10;;;20.30;93.70;;;;;;5074951;28;20630;-77
2022/07/26 03:36:09;;;;;;;2.33;1.07;;;20.30;93.80;;;;;;5074796;28;20177;-77
2022/07/26 03:38:35;;;;;;;1.90;0.87;;;20.20;93.70;;;;;;5073951;28;20184;-77
2022/07/26 03:41:01;;;;;;;9.10;0.97;;;20.10;94.00;;;;;;5071044;28;20428;-77
2022/07/26 03:43:27;;;;;;;4.30;1.13;;;20.10;94.00;;;;;;5064774;28;20430;-77
2022/07/26 03:45:53;;;;;;;6.23;1.00;;;20.10;94.10;;;;;;5088631;28;20682;-77
2022/07/26 03:48:18;;;;;;;3.53;1.43;;;20.00;94.20;;;;;;5085054;28;20271;-77
2022/07/26 03:50:44;;;;;;;2.17;0.90;;;20.00;94.60;;;;;;5074507;28;20255;-77
2022/07/26 03:53:09;;;;;;;3.40;1.40;;;19.90;94.50;;;;;;5074193;28;20204;-77
2022/07/26 03:58:22;;;;;;;2.63;1.07;;;19.80;94.60;;;;;;5066417;28;20664;-77
2022/07/26 04:00:48;;;;;;;3.10;0.97;;;19.80;94.90;;;;;;5068356;28;20414;-77
2022/07/26 04:03:14;;;;;;;2.07;1.00;;;19.70;94.90;;;;;;5071053;28;20919;-77
2022/07/26 04:05:39;;;;;;;2.00;0.93;;;19.70;95.00;;;;;;5076027;28;20597;-77
2022/07/26 04:08:05;;;;;;;3.13;0.97;;;19.60;95.20;;;;;;5082231;28;20529;-77
2022/07/26 04:10:31;;;;;;;1.97;0.97;;;19.60;95.50;;;;;;5074023;28;20199;-77
2022/07/26 04:12:56;;;;;;;4.87;1.30;;;19.50;95.60;;;;;;5072720;28;20250;-77
2022/07/26 04:15:22;;;;;;;1.87;0.90;;;19.40;95.60;;;;;;5072328;28;20466;-77
2022/07/26 04:17:48;;;;;;;3.53;1.27;;;19.40;95.80;;;;;;5073310;28;20192;-77
2022/07/26 04:20:14;;;;;;;2.27;1.10;;;19.30;95.90;;;;;;5079297;28;20188;-76
2022/07/26 04:22:40;;;;;;;3.77;1.27;;;19.30;96.10;;;;;;5080225;28;20189;-77
2022/07/26 04:25:07;;;;;;;2.83;1.13;;;19.20;96.10;;;;;;5073559;28;20541;-77
2022/07/26 04:27:33;;;;;;;2.20;1.00;;;19.20;96.30;;;;;;5086901;28;20195;-77
2022/07/26 04:29:58;;;;;;;3.27;1.00;;;19.20;96.50;;;;;;5080520;28;20439;-76
2022/07/26 04:32:24;;;;;;;1.90;0.93;;;19.10;96.80;;;;;;5091959;28;20208;-77
2022/07/26 04:34:50;;;;;;;2.77;1.07;;;19.10;97.00;;;;;;5076203;28;20485;-77
2022/07/26 04:37:15;;;;;;;2.37;1.17;;;19.10;97.30;;;;;;5074976;28;20185;-76
2022/07/26 04:39:41;;;;;;;2.83;1.23;;;19.00;97.60;;;;;;5086311;28;20193;-77
2022/07/26 04:42:07;;;;;;;2.30;1.00;;;18.90;97.70;;;;;;5073132;28;20609;-77
2022/07/26 04:44:32;;;;;;;2.70;0.80;;;18.90;98.00;;;;;;5073369;28;20214;-77
2022/07/26 04:46:58;;;;;;;3.07;1.17;;;18.90;98.20;;;;;;5073258;28;20181;-77
2022/07/26 04:49:24;;;;;;;3.80;1.20;;;18.80;98.40;;;;;;5087668;28;20208;-77
2022/07/26 04:51:49;;;;;;;4.30;1.23;;;18.80;98.60;;;;;;5085813;28;20208;-77
2022/07/26 04:54:19;;;;;;;2.43;1.13;;;18.90;98.70;;;;;;5088041;28;20184;-77
2022/07/26 04:56:45;;;;;;;2.43;1.10;;;18.90;99.00;;;;;;5072299;28;20290;-77
2022/07/26 04:59:12;;;;;;;6.47;1.13;;;19.00;98.80;;;;;;5070160;28;20478;-77
2022/07/26 05:01:38;;;;;;;5.77;1.43;;;19.10;98.80;;;;;;5065531;28;20494;-77
2022/07/26 05:04:04;;;;;;;2.97;1.50;;;19.20;98.60;;;;;;5079898;28;20497;-77
2022/07/26 05:06:31;;;;;;;2.53;0.83;;;19.30;98.00;;;;;;5074170;28;20185;-77
2022/07/26 05:08:57;;;;;;;2.33;1.03;;;19.40;98.00;;;;;;5072639;28;20524;-77
2022/07/26 05:11:23;;;;;;;1.70;0.80;;;19.40;98.20;;;;;;5072107;28;20458;-77
2022/07/26 05:13:49;;;;;;;32.57;1.93;;;19.50;98.10;;;;;;5072830;28;20431;-77
2022/07/26 05:16:15;;;;;;;2.63;1.30;;;19.50;98.00;;;;;;5072852;28;20419;-76
2022/07/26 05:18:40;;;;;;;3.27;1.87;;;19.50;98.00;;;;;;5077689;28;20219;-76
2022/07/26 05:21:06;;;;;;;6.37;1.47;;;19.50;98.10;;;;;;5072025;28;20658;-76
2022/07/26 05:23:32;;;;;;;3.77;1.57;;;19.60;98.00;;;;;;5072760;28;20227;-77
2022/07/26 05:25:57;;;;;;;3.23;1.40;;;19.50;97.70;;;;;;5078730;28;20195;-76
2022/07/26 05:28:23;;;;;;;1.77;0.87;;;19.50;97.80;;;;;;5080241;28;20185;-77
2022/07/26 05:30:49;;;;;;;4.50;1.37;;;19.50;97.90;;;;;;5072469;28;20264;-77
2022/07/26 05:33:14;;;;;;;3.17;1.27;;;19.50;97.80;;;;;;5073107;28;20213;-77
2022/07/26 05:35:40;;;;;;;8.60;1.63;;;19.50;98.00;;;;;;5073301;28;20529;-77
2022/07/26 05:38:06;;;;;;;2.93;1.30;;;19.50;97.90;;;;;;5075294;28;20189;-77
2022/07/26 05:40:31;;;;;;;3.73;1.67;;;19.40;98.00;;;;;;5072824;28;20633;-77
2022/07/26 05:42:57;;;;;;;5.70;1.63;;;19.40;98.20;;;;;;5072380;28;20189;-77
2022/07/26 05:45:22;;;;;;;3.30;1.30;;;19.40;98.50;;;;;;5072007;28;20185;-76
2022/07/26 05:47:49;;;;;;;4.20;1.60;;;19.50;98.30;;;;;;5077434;28;20207;-76
2022/07/26 05:50:15;;;;;;;5.07;1.63;;;19.50;98.70;;;;;;5085542;28;20196;-76
2022/07/26 05:52:41;;;;;;;3.70;1.63;;;19.60;98.20;;;;;;5072314;28;20497;-76
2022/07/26 05:55:07;;;;;;;8.00;2.03;;;19.60;98.50;;;;;;5072107;28;20533;-77
2022/07/26 05:57:32;;;;;;;4.27;1.93;;;19.60;98.00;;;;;;5073342;28;20181;-76
2022/07/26 05:59:58;;;;;;;3.30;2.00;;;19.60;98.10;;;;;;5071998;28;20438;-76
2022/07/26 06:02:24;;;;;;;3.10;1.67;;;19.60;98.30;;;;;;5072797;28;20219;-76
2022/07/26 06:04:49;;;;;;;3.70;1.73;;;19.60;98.10;;;;;;5085397;28;20188;-76
2022/07/26 06:07:15;;;;;;;4.00;1.87;;;19.60;98.40;;;;;;5074530;28;20625;-77
2022/07/26 06:09:41;;;;;;;5.40;1.70;;;19.70;98.70;;;;;;5071105;28;20213;-76
2022/07/26 06:12:07;;;;;;;3.43;1.60;;;19.80;98.60;;;;;;5086930;28;20342;-76
2022/07/26 06:14:33;;;;;;;3.40;1.93;;;20.00;98.00;;;;;;5085888;28;20895;-76
2022/07/26 06:16:59;;;;;;;3.93;2.00;;;20.10;97.80;;;;;;5079651;28;20608;-77
2022/07/26 06:19:24;;;;;;;3.17;1.60;;;20.10;97.20;;;;;;5078346;28;20414;-77
2022/07/26 06:21:50;;;;;;;5.40;1.80;;;20.00;97.30;;;;;;5085617;28;20208;-76
2022/07/26 06:24:16;;;;;;;6.60;1.97;;;20.00;97.70;;;;;;5073559;28;20549;-76
2022/07/26 06:26:41;;;;;;;4.10;1.60;;;20.00;97.60;;;;;;5079232;28;20190;-78
2022/07/26 06:29:07;;;;;;;7.47;1.50;;;20.00;96.40;;;;;;5081409;28;20230;-76
2022/07/26 06:31:33;;;;;;;3.67;1.90;;;20.10;96.10;;;;;;5086981;28;20626;-76
2022/07/26 06:33:59;;;;;;;5.70;1.60;;;20.10;95.90;;;;;;5074260;28;20181;-77
2022/07/26 06:36:24;;;;;;;6.57;1.63;;;20.10;95.90;;;;;;5075398;28;20185;-76
2022/07/26 06:38:50;;;;;;;3.87;1.27;;;20.10;95.50;;;;;;5066096;28;20174;-76
2022/07/26 06:41:16;;;;;;;3.80;1.87;;;20.10;95.20;;;;;;5076247;28;20173;-76
2022/07/26 06:43:41;;;;;;;3.23;1.30;;;20.10;95.70;;;;;;5077774;28;20177;-76
2022/07/26 06:46:07;;;;;;;5.73;1.80;;;20.10;95.40;;;;;;5081377;28;20539;-76
2022/07/26 06:48:34;;;;;;;3.47;1.20;;;20.00;95.30;;;;;;5093386;28;20184;-76
2022/07/26 06:50:59;;;;;;;5.70;1.10;;;20.00;95.30;;;;;;5087174;28;20234;-76
2022/07/26 06:53:25;;;;;;;4.67;1.50;;;20.00;94.20;;;;;;5083203;28;20454;-76
2022/07/26 06:55:51;;;;;;;5.97;1.20;;;20.10;93.30;;;;;;5083492;28;20214;-76
2022/07/26 06:58:16;;;;;;;1.60;0.73;;;20.20;92.40;;;;;;5082845;28;20180;-76
2022/07/26 07:00:42;;;;;;;2.77;1.50;;;20.40;92.20;;;;;;5072565;28;20189;-76
2022/07/26 07:03:08;;;;;;;5.70;1.40;;;20.60;92.00;;;;;;5071071;28;20723;-76
2022/07/26 07:05:34;;;;;;;2.60;1.10;;;20.70;91.90;;;;;;5077598;28;20501;-76
2022/07/26 07:07:59;;;;;;;1.93;1.00;;;20.80;90.80;;;;;;5080980;28;20509;-76
2022/07/26 07:10:25;;;;;;;4.17;1.43;;;21.00;91.50;;;;;;5086914;28;20255;-77
2022/07/26 07:12:51;;;;;;;3.30;1.10;;;21.30;89.40;;;;;;5079014;28;20273;-76
2022/07/26 07:15:17;;;;;;;5.53;1.30;;;21.60;88.70;;;;;;5070501;28;20205;-77
2022/07/26 07:17:42;;;;;;;2.73;1.30;;;21.70;88.20;;;;;;5071205;28;20186;-76
2022/07/26 07:20:09;;;;;;;3.90;1.17;;;21.90;86.80;;;;;;5073302;28;20219;-76
2022/07/26 07:22:34;;;;;;;1.90;1.03;;;21.90;87.90;;;;;;5076970;28;20205;-76
2022/07/26 07:25:00;;;;;;;8.07;1.00;;;21.90;84.50;;;;;;5074800;28;20455;-77
2022/07/26 07:27:26;;;;;;;4.07;1.20;;;22.10;85.20;;;;;;5074744;28;20181;-77
2022/07/26 07:29:52;;;;;;;2.10;0.80;;;22.50;84.50;;;;;;5084145;28;20185;-76
2022/07/26 07:32:18;;;;;;;2.47;1.00;;;22.80;81.30;;;;;;5068091;28;20480;-76
2022/07/26 07:34:44;;;;;;;2.37;1.00;;;23.00;80.00;;;;;;5072997;28;20213;-77
2022/07/26 07:37:11;;;;;;;2.07;0.97;;;23.30;78.90;;;;;;5073314;28;20514;-77
2022/07/26 07:39:37;;;;;;;5.63;1.17;;;23.40;79.90;;;;;;5072703;28;20419;-77
2022/07/26 07:42:02;;;;;;;3.10;1.37;;;24.20;75.90;;;;;;5083307;28;20425;-77
2022/07/26 07:44:28;;;;;;;2.57;0.90;;;24.80;76.60;;;;;;5073155;28;20637;-77
2022/07/26 07:46:54;;;;;;;5.97;1.33;;;25.80;71.30;;;;;;5063398;28;20177;-78
2022/07/26 07:49:21;;;;;;;1.77;0.93;;;26.70;69.00;;;;;;5072641;28;20547;-78
2022/07/26 07:51:46;;;;;;;2.25;1.00;;;27.70;65.10;;;;;;5072293;28;20616;-78
2022/07/26 07:54:14;;;;;;;2.42;0.80;;;27.10;65.80;;;;;;5073125;28;20189;-78
2022/07/26 07:56:41;;;;;;;6.45;0.77;;;27.60;65.70;;;;;;5072549;28;20290;-78
2022/07/26 07:59:07;;;;;;;2.25;0.80;;;28.00;64.10;;;;;;5086307;28;20664;-77
2022/07/26 08:01:32;;;;;;;2.30;0.88;;;28.90;59.80;;;;;;5072202;28;20192;-77
2022/07/26 08:03:58;;;;;;;2.40;1.10;;;29.30;58.80;;;;;;5072743;28;20220;-78
2022/07/26 08:06:24;;;;;;;2.20;1.00;;;29.00;59.00;;;;;;5072490;28;20226;-78
2022/07/26 08:08:49;;;;;;;2.25;0.73;;;29.00;58.50;;;;;;5072784;28;20180;-77
2022/07/26 08:11:15;;;;;;;2.17;0.90;;;28.60;59.80;;;;;;5071898;28;20234;-78
2022/07/26 08:13:41;;;;;;;2.67;1.10;;;28.50;58.80;;;;;;5072675;28;20295;-78
2022/07/26 08:16:07;;;;;;;1.85;0.70;;;27.80;60.70;;;;;;5072123;28;20724;-78
2022/07/26 08:18:32;;;;;;;2.22;1.00;;;27.20;61.00;;;;;;5079572;28;20254;-77
2022/07/26 08:20:58;;;;;;;9.50;1.30;;;26.60;63.90;;;;;;5072427;28;20196;-77
2022/07/26 08:23:24;;;;;;;10.07;1.58;;;27.00;62.20;;;;;;5072266;28;20664;-77
2022/07/26 08:25:50;;;;;;;3.22;0.90;;;27.50;61.50;;;;;;5072353;28;20177;-78
2022/07/26 08:28:15;;;;;;;3.47;1.08;;;27.90;60.40;;;;;;5072647;28;20543;-78
2022/07/26 08:30:41;;;;;;;2.75;1.38;;;27.90;61.40;;;;;;5071529;28;20637;-77
2022/07/26 08:33:07;;;;;;;1.60;0.60;;;27.50;59.60;;;;;;5071983;28;20700;-77
2022/07/26 08:35:33;;;;;;;1.80;0.80;;;26.50;61.20;;;;;;5072389;28;20185;-77
2022/07/26 08:37:59;;;;;;;2.40;0.70;;;25.80;63.10;;;;;;5072066;28;20791;-77
2022/07/26 08:40:24;;;;;;;2.60;0.70;;;26.00;65.50;;;;;;5084552;28;20534;-77
2022/07/26 08:42:51;;;;;;;1.73;0.75;;;26.90;62.00;;;;;;5073380;28;20263;-78
2022/07/26 08:45:22;;;;;;;7.28;1.20;;;27.60;61.80;;;;;;5070629;28;20629;-78
2022/07/26 08:47:48;;;;;;;3.00;1.15;;;27.60;59.90;;;;;;5085422;28;20181;-77
2022/07/26 08:50:13;;;;;;;1.77;0.75;;;26.90;63.60;;;;;;5084993;28;20201;-77
2022/07/26 08:52:39;;;;;;;1.80;0.90;;;26.50;63.10;;;;;;5078450;28;20906;-78
2022/07/26 08:55:05;;;;;;;3.10;1.30;;;26.10;63.20;;;;;;5079174;28;20187;-76
2022/07/26 08:57:31;;;;;;;2.53;1.47;;;25.50;65.10;;;;;;5071621;28;20212;-77
2022/07/26 09:00:17;;;;;;;2.37;0.83;;;25.60;66.50;;;;;;5072031;28;20192;-77
2022/07/26 09:02:43;;;;;;;4.33;1.00;;;25.60;65.10;;;;;;5060446;28;20654;-76
2022/07/26 09:05:09;;;;;;;2.63;1.00;;;25.30;65.40;;;;;;5071424;28;20427;-77
2022/07/26 09:07:34;;;;;;;6.60;1.27;;;24.80;65.90;;;;;;5062919;28;20513;-77
2022/07/26 09:10:09;;;;;;;2.93;1.03;;;25.10;66.00;;;;;;5067243;28;20215;-77
2022/07/26 09:12:36;;;;;;;3.50;1.00;;;25.80;65.60;;;;;;5076722;28;20689;-77
2022/07/26 09:15:04;;;;;;;3.60;1.60;;;26.30;64.70;;;;;;5074452;28;20851;-78
2022/07/26 09:17:40;;;;;;;2.85;0.70;;;27.00;62.60;;;;;;5076596;28;20237;-78
2022/07/26 09:20:17;;;;;;;1.83;0.65;;;27.70;60.30;;;;;;5073858;28;20184;-77
2022/07/26 09:23:15;;;;;;;3.28;0.73;;;27.40;62.20;;;;;;5061661;28;20526;-77
2022/07/26 09:25:43;;;;;;;1.88;0.82;;;28.10;60.00;;;;;;5052291;28;20196;-77
2022/07/26 09:28:23;;;;;;;2.13;0.80;;;27.90;60.00;;;;;;5057059;28;20204;-77
2022/07/26 09:30:55;;;;;;;1.50;0.63;;;27.10;60.10;;;;;;5072722;28;20270;-77
2022/07/26 09:33:20;;;;;;;1.90;0.80;;;26.10;61.30;;;;;;5052181;28;20204;-77
2022/07/26 09:36:01;;;;;;;3.87;1.50;;;25.30;62.30;;;;;;5062377;28;20176;-77
2022/07/26 09:38:41;;;;;;;3.53;1.30;;;24.80;65.00;;;;;;5070821;28;20184;-77
2022/07/26 09:41:27;;;;;;;8.93;1.20;;;24.40;65.30;;;;;;5089477;28;20428;-76
2022/07/26 09:43:55;;;;;;;2.57;0.73;;;24.20;65.70;;;;;;5096234;28;20389;-76
2022/07/26 09:46:26;;;;;;;2.20;0.70;;;24.10;67.80;;;;;;5078576;28;20522;-76
2022/07/26 09:48:54;;;;;;;13.80;1.23;;;24.40;66.50;;;;;;5073777;28;20403;-77
2022/07/26 09:51:38;;;;;;;5.73;0.93;;;24.90;65.30;;;;;;5076746;28;20423;-77
2022/07/26 09:54:04;;;;;;;3.40;0.97;;;25.10;64.10;;;;;;5062558;28;20453;-76
2022/07/26 09:56:50;;;;;;;2.00;0.63;;;25.60;64.70;;;;;;5069186;28;20418;-77
2022/07/26 09:59:18;;;;;;;2.77;1.10;;;26.30;62.70;;;;;;5089166;28;20234;-77
2022/07/26 10:01:44;;;;;;;1.90;0.83;;;27.00;63.20;;;;;;5073125;28;20176;-78
2022/07/26 10:04:10;;;;;;;3.43;0.80;;;27.10;61.10;;;;;;5085814;28;20168;-77
2022/07/26 10:06:36;;;;;;;8.50;1.23;;;26.80;59.50;;;;;;5062481;28;20181;-77
2022/07/26 10:09:03;;;;;;;2.07;0.90;;;26.20;60.70;;;;;;5082228;28;20183;-78
2022/07/26 10:11:35;;;;;;;7.27;1.20;;;25.70;61.70;;;;;;5072111;28;20664;-77
2022/07/26 10:14:39;;;;;;;3.20;1.10;;;25.20;63.70;;;;;;5081085;28;20422;-77
2022/07/26 10:17:32;;;;;;;1.40;0.50;;;24.80;63.50;;;;;;5058947;28;20943;-77
2022/07/26 10:20:03;;;;;;;2.33;0.80;;;24.60;65.70;;;;;;5071399;28;20414;-77
2022/07/26 10:22:40;;;;;;;1.63;0.67;;;24.50;65.90;;;;;;5069614;28;20434;-77
2022/07/26 10:25:18;;;;;;;3.97;0.97;;;24.80;63.90;;;;;;5071237;28;20411;-77
2022/07/26 10:27:47;;;;;;;1.50;0.60;;;25.00;64.30;;;;;;5070733;28;20422;-77
2022/07/26 10:30:16;;;;;;;2.27;0.77;;;25.10;66.30;;;;;;5071216;28;20418;-77
2022/07/26 10:32:51;;;;;;;3.40;1.23;;;25.10;62.70;;;;;;5070911;28;20493;-77
2022/07/26 10:35:43;;;;;;;2.70;0.80;;;25.20;62.20;;;;;;5071228;28;20421;-77
2022/07/26 10:38:25;;;;;;;2.27;0.90;;;25.40;63.70;;;;;;5057339;28;20414;-77
2022/07/26 10:41:01;;;;;;;2.13;0.90;;;25.60;61.80;;;;;;5070647;28;20421;-76
2022/07/26 10:43:28;;;;;;;3.00;1.00;;;25.40;62.80;;;;;;5070518;28;20453;-77
2022/07/26 10:46:15;;;;;;;3.43;0.80;;;25.50;63.50;;;;;;5069753;28;20903;-77
2022/07/26 10:49:03;;;;;;;1.97;0.80;;;25.70;60.30;;;;;;5070336;28;20766;-77
2022/07/26 10:51:34;;;;;;;1.70;0.70;;;26.00;61.80;;;;;;5089502;28;20414;-77
2022/07/26 10:54:04;;;;;;;2.23;1.07;;;26.30;60.20;;;;;;5074031;28;20887;-77
2022/07/26 10:56:30;;;;;;;4.60;0.93;;;26.50;60.80;;;;;;5084313;28;20417;-77
2022/07/26 10:58:56;;;;;;;3.37;1.10;;;26.20;60.30;;;;;;5086836;28;20415;-78
2022/07/26 11:01:31;;;;;;;3.53;0.90;;;26.20;61.10;;;;;;5073302;28;20195;-77
2022/07/26 11:03:57;;;;;;;2.80;0.90;;;26.30;58.50;;;;;;5073651;28;20217;-78
2022/07/26 11:06:26;;;;;;;8.60;1.20;;;26.30;58.00;;;;;;5085895;28;20409;-77
2022/07/26 11:08:52;;;;;;;2.30;0.73;;;26.00;60.10;;;;;;5074823;28;20419;-77
2022/07/26 11:11:32;;;;;;;28.07;1.00;;;25.80;62.20;;;;;;5085842;28;20486;-77
2022/07/26 11:14:09;;;;;;;2.47;0.80;;;25.40;63.10;;;;;;5060880;28;20698;-77
2022/07/26 11:16:40;;;;;;;1.90;0.90;;;25.40;62.80;;;;;;5072437;28;20418;-77
2022/07/26 11:19:37;;;;;;;2.17;0.90;;;25.70;62.20;;;;;;5083381;28;20417;-78
2022/07/26 11:22:03;;;;;;;2.33;0.80;;;26.10;61.20;;;;;;5059515;28;20842;-77
2022/07/26 11:24:28;;;;;;;1.70;0.70;;;26.20;61.60;;;;;;5073408;28;20510;-77
2022/07/26 11:26:55;;;;;;;2.27;0.60;;;26.00;60.80;;;;;;5073678;28;20237;-77
2022/07/26 11:29:33;;;;;;;4.50;0.90;;;26.00;63.10;;;;;;5083968;28;20600;-77
2022/07/26 11:32:00;;;;;;;2.97;0.87;;;26.40;60.50;;;;;;5072415;28;20493;-77
2022/07/26 11:34:28;;;;;;;2.90;0.73;;;26.40;60.50;;;;;;5076036;28;20426;-77
2022/07/26 11:36:55;;;;;;;3.40;1.00;;;26.60;63.80;;;;;;5084929;28;20411;-77
2022/07/26 11:39:24;;;;;;;1.87;0.70;;;26.40;60.70;;;;;;5073653;28;20773;-77
2022/07/26 11:41:55;;;;;;;1.63;0.60;;;26.20;61.90;;;;;;5072994;28;20422;-77
2022/07/26 11:44:22;;;;;;;1.70;0.60;;;26.20;60.20;;;;;;5073486;28;20513;-77
2022/07/26 11:46:48;;;;;;;4.30;1.23;;;25.70;62.40;;;;;;5072763;28;20425;-76
2022/07/26 11:49:28;;;;;;;2.20;0.70;;;25.90;63.10;;;;;;5088154;28;20425;-78
2022/07/26 11:52:02;;;;;;;2.17;0.80;;;26.20;60.50;;;;;;5086555;28;20844;-76
2022/07/26 11:54:48;;;;;;;1.70;0.60;;;26.00;59.60;;;;;;5062787;28;20426;-76
2022/07/26 11:57:15;;;;;;;1.70;0.73;;;25.70;62.20;;;;;;5081727;28;20418;-76
2022/07/26 11:59:43;;;;;;;1.77;0.67;;;25.80;59.80;;;;;;5088208;28;20444;-76
2022/07/26 12:02:09;;;;;;;2.63;0.90;;;25.60;58.40;;;;;;5108401;28;20407;-77
2022/07/26 12:04:37;;;;;;;1.50;0.60;;;25.40;59.60;;;;;;5096393;28;20482;-76
2022/07/26 12:07:09;;;;;;;4.70;0.80;;;25.20;61.20;;;;;;5095583;28;20240;-76
2022/07/26 12:09:36;;;;;;;2.63;0.90;;;25.00;59.50;;;;;;5082099;28;20440;-77
2022/07/26 12:12:10;;;;;;;3.80;0.80;;;24.70;60.10;;;;;;5084602;28;20541;-76
2022/07/26 12:14:38;;;;;;;2.60;0.97;;;24.90;59.30;;;;;;5081513;28;20948;-76
2022/07/26 12:17:17;;;;;;;8.47;0.80;;;25.30;59.10;;;;;;5072499;28;20430;-77
2022/07/26 12:19:44;;;;;;;2.00;0.67;;;25.60;58.20;;;;;;5083216;28;20543;-76
2022/07/26 12:22:12;;;;;;;11.93;1.10;;;25.80;58.20;;;;;;5083785;28;20468;-76
2022/07/26 12:24:49;;;;;;;1.77;0.70;;;26.00;58.80;;;;;;5072542;28;20434;-76
2022/07/26 12:27:20;;;;;;;1.80;0.80;;;26.10;59.50;;;;;;5071555;28;20411;-75
2022/07/26 12:29:49;;;;;;;3.30;1.03;;;26.20;60.80;;;;;;5072137;28;20418;-76
2022/07/26 12:32:20;;;;;;;1.50;0.60;;;26.50;59.10;;;;;;5070723;28;20492;-76
2022/07/26 12:34:57;;;;;;;1.67;0.70;;;26.60;58.60;;;;;;5073288;28;20513;-76
2022/07/26 12:37:24;;;;;;;4.60;0.67;;;26.50;59.90;;;;;;5073132;28;20410;-76
2022/07/26 12:40:01;;;;;;;1.80;0.80;;;26.40;57.20;;;;;;5086324;28;20911;-76
2022/07/26 12:42:38;;;;;;;1.50;0.60;;;26.40;57.70;;;;;;5086069;28;20426;-76
2022/07/26 12:45:07;;;;;;;2.43;0.60;;;26.50;58.00;;;;;;5073829;28;20458;-76
2022/07/26 12:47:34;;;;;;;1.70;0.80;;;26.80;57.00;;;;;;5072581;28;20422;-76
2022/07/26 12:50:02;;;;;;;4.57;0.60;;;26.90;56.50;;;;;;5073220;28;20423;-77
2022/07/26 12:52:28;;;;;;;2.03;0.73;;;26.90;55.70;;;;;;5090314;28;20461;-76